Time;durP1;ratioP1;P1;durP2;ratioP2;P2;SDS_P1;SDS_P2;PMS_P1;PMS_P2;Temp;Humidity;BMP_temperature;BMP_pressure;BME280_temperature;BME280_humidity;BME280_pressure;Samples;Min_cycle;Max_cycle;Signal;HPM_P1;HPM_P2
2022/03/24 00:00:11;;;;;;;11.50;10.05;;;10.10;49.30;;;;;;5048340;28;20035;-79
2022/03/24 00:02:39;;;;;;;11.52;10.23;;;10.10;49.40;;;;;;5035328;28;20017;-79
2022/03/24 00:05:06;;;;;;;11.90;10.52;;;10.10;49.40;;;;;;5025684;28;20036;-79
2022/03/24 00:07:32;;;;;;;12.40;11.13;;;10.00;49.30;;;;;;5025032;28;20029;-79
2022/03/24 00:09:57;;;;;;;11.77;10.55;;;10.00;49.40;;;;;;5029859;28;20527;-79
2022/03/24 00:12:23;;;;;;;12.82;11.07;;;10.00;49.40;;;;;;5020676;28;20032;-79
2022/03/24 00:14:49;;;;;;;12.95;10.98;;;9.90;49.30;;;;;;5022795;28;20120;-79
2022/03/24 00:17:15;;;;;;;12.40;11.05;;;9.90;49.30;;;;;;5025972;28;20021;-79
2022/03/24 00:19:41;;;;;;;12.70;11.13;;;9.90;49.40;;;;;;5026981;28;20040;-80
2022/03/24 00:22:07;;;;;;;11.45;10.30;;;9.80;49.30;;;;;;5030247;28;20461;-79
2022/03/24 00:24:33;;;;;;;11.10;10.00;;;9.80;49.30;;;;;;5021996;28;20087;-80
2022/03/24 00:26:59;;;;;;;12.57;11.10;;;9.80;49.40;;;;;;5019502;28;20034;-80
2022/03/24 00:29:25;;;;;;;11.77;10.10;;;9.70;49.20;;;;;;5021427;28;20231;-80
2022/03/24 00:31:51;;;;;;;13.15;11.75;;;9.70;49.30;;;;;;5024036;28;20037;-79
2022/03/24 00:34:18;;;;;;;14.48;11.50;;;9.70;49.30;;;;;;5024702;28;20033;-79
2022/03/24 00:36:44;;;;;;;12.57;10.73;;;9.60;49.20;;;;;;5026299;28;20048;-79
2022/03/24 00:39:11;;;;;;;15.88;11.05;;;9.60;49.20;;;;;;5029245;28;20056;-79
2022/03/24 00:41:37;;;;;;;14.20;11.95;;;9.60;49.30;;;;;;5023026;28;20082;-79
2022/03/24 00:44:03;;;;;;;12.57;11.30;;;9.60;49.30;;;;;;5018462;28;20065;-81
2022/03/24 00:46:31;;;;;;;12.27;11.00;;;9.50;49.20;;;;;;5029812;28;20535;-81
2022/03/24 00:49:00;;;;;;;12.95;11.00;;;9.50;49.20;;;;;;5014627;28;20461;-81
2022/03/24 00:51:25;;;;;;;14.88;11.60;;;9.50;49.20;;;;;;5023754;28;20124;-80
2022/03/24 00:53:51;;;;;;;14.10;11.23;;;9.50;49.30;;;;;;5024560;28;20033;-80
2022/03/24 00:56:18;;;;;;;12.98;10.80;;;9.40;49.20;;;;;;5035161;28;20649;-80
2022/03/24 00:58:44;;;;;;;11.68;10.40;;;9.40;49.20;;;;;;5022594;28;20043;-80
2022/03/24 01:01:12;;;;;;;12.75;11.40;;;9.40;49.20;;;;;;5020211;28;20392;-80
2022/03/24 01:03:42;;;;;;;12.57;11.38;;;9.30;49.10;;;;;;5023617;28;20033;-81
2022/03/24 01:06:10;;;;;;;13.15;11.40;;;9.30;49.20;;;;;;5024918;28;20060;-81
2022/03/24 01:08:36;;;;;;;12.88;11.48;;;9.30;49.20;;;;;;5026547;28;20278;-79
2022/03/24 01:11:06;;;;;;;11.65;10.30;;;9.20;49.10;;;;;;5024238;28;20241;-79
2022/03/24 01:13:36;;;;;;;12.77;11.48;;;9.20;49.10;;;;;;5040065;28;20492;-79
2022/03/24 01:16:03;;;;;;;12.88;10.95;;;9.20;49.20;;;;;;5007120;28;20307;-79
2022/03/24 01:18:30;;;;;;;12.40;10.82;;;9.20;49.30;;;;;;5022999;28;20076;-79
2022/03/24 01:20:56;;;;;;;14.35;11.45;;;9.10;49.10;;;;;;5024826;28;20039;-79
2022/03/24 01:23:25;;;;;;;13.88;10.98;;;9.10;49.10;;;;;;5038968;28;20037;-79
2022/03/24 01:25:54;;;;;;;12.38;11.15;;;9.10;49.10;;;;;;5040708;28;20045;-79
2022/03/24 01:28:20;;;;;;;11.98;10.77;;;9.00;48.90;;;;;;5022495;28;20789;-79
2022/03/24 01:30:46;;;;;;;13.20;11.23;;;9.00;49.00;;;;;;5038982;28;20180;-79
2022/03/24 01:33:12;;;;;;;12.15;10.82;;;9.00;49.10;;;;;;5040151;28;20392;-79
2022/03/24 01:35:39;;;;;;;12.95;10.70;;;8.90;49.00;;;;;;5024365;28;20090;-79
2022/03/24 01:38:05;;;;;;;12.90;11.00;;;8.90;49.00;;;;;;5020914;28;20060;-79
2022/03/24 01:40:31;;;;;;;12.18;10.20;;;8.90;49.10;;;;;;5029913;28;20473;-78
2022/03/24 01:42:57;;;;;;;11.20;10.13;;;8.90;49.10;;;;;;5036616;28;20472;-78
2022/03/24 01:45:23;;;;;;;13.32;11.77;;;8.80;48.90;;;;;;5044826;28;20033;-79
2022/03/24 01:47:51;;;;;;;12.93;11.23;;;8.80;49.00;;;;;;5056216;28;20037;-79
2022/03/24 01:50:17;;;;;;;12.32;11.02;;;8.80;49.60;;;;;;5024315;28;20034;-80
2022/03/24 01:52:44;;;;;;;13.32;11.52;;;8.80;49.10;;;;;;5023611;28;20651;-78
2022/03/24 01:55:11;;;;;;;12.55;11.25;;;8.80;49.10;;;;;;5039920;28;20034;-79
2022/03/24 01:57:38;;;;;;;12.20;10.93;;;8.70;49.50;;;;;;5027880;28;20163;-79
2022/03/24 02:00:06;;;;;;;11.98;10.75;;;8.70;49.00;;;;;;5022955;28;20048;-79
2022/03/24 02:02:42;;;;;;;12.40;11.18;;;8.70;49.00;;;;;;5024124;28;20137;-79
2022/03/24 02:05:10;;;;;;;13.88;11.65;;;8.70;49.00;;;;;;5023259;28;20037;-79
2022/03/24 02:07:37;;;;;;;12.48;11.23;;;8.60;48.90;;;;;;5018418;28;20578;-79
2022/03/24 02:10:08;;;;;;;11.85;10.23;;;8.60;48.90;;;;;;5023383;28;20064;-80
2022/03/24 02:12:34;;;;;;;11.95;10.68;;;8.60;49.00;;;;;;5033118;28;20501;-81
2022/03/24 02:15:00;;;;;;;15.68;11.52;;;8.50;48.80;;;;;;5040148;28;20064;-81
2022/03/24 02:17:30;;;;;;;12.13;10.68;;;8.50;48.90;;;;;;5023248;28;20459;-79
2022/03/24 02:20:00;;;;;;;12.23;10.85;;;8.50;48.90;;;;;;5023475;28;20029;-80
2022/03/24 02:22:29;;;;;;;12.02;10.55;;;8.50;48.90;;;;;;5022818;28;20506;-80
2022/03/24 02:24:55;;;;;;;11.38;10.23;;;8.40;48.80;;;;;;5022261;28;20494;-80
2022/03/24 02:27:24;;;;;;;13.55;10.77;;;8.40;48.80;;;;;;5023181;28;20034;-79
2022/03/24 02:29:51;;;;;;;14.10;11.40;;;8.40;48.90;;;;;;5032501;28;20288;-80
2022/03/24 02:32:19;;;;;;;12.40;11.10;;;8.40;48.90;;;;;;5025153;28;20039;-80
2022/03/24 02:34:48;;;;;;;11.88;10.68;;;8.40;48.90;;;;;;5037237;28;20047;-80
2022/03/24 02:37:20;;;;;;;13.00;10.90;;;8.30;48.80;;;;;;5023230;28;20025;-79
2022/03/24 02:39:51;;;;;;;14.77;11.77;;;8.30;48.80;;;;;;5030006;28;20044;-80
2022/03/24 02:42:19;;;;;;;13.27;11.68;;;8.30;48.90;;;;;;5024688;28;20085;-80
2022/03/24 02:44:48;;;;;;;12.80;11.07;;;8.30;48.90;;;;;;5025059;28;20076;-80
2022/03/24 02:47:14;;;;;;;11.90;10.23;;;8.30;48.90;;;;;;5026436;28;20045;-80
2022/03/24 02:49:41;;;;;;;12.40;11.02;;;8.20;48.80;;;;;;5029199;28;20120;-80
2022/03/24 02:52:08;;;;;;;13.15;11.80;;;8.20;48.80;;;;;;5028611;28;20119;-80
2022/03/24 02:54:35;;;;;;;12.65;11.05;;;8.20;48.80;;;;;;5029261;28;20096;-80
2022/03/24 02:57:02;;;;;;;13.48;11.07;;;8.20;48.80;;;;;;5002836;28;20040;-80
2022/03/24 02:59:28;;;;;;;13.23;11.10;;;8.10;48.70;;;;;;5024575;28;20033;-80
2022/03/24 03:02:01;;;;;;;13.43;12.07;;;8.20;48.90;;;;;;5016500;28;20144;-79
2022/03/24 03:04:28;;;;;;;12.23;10.75;;;8.20;48.90;;;;;;5032644;28;20021;-81
2022/03/24 03:06:55;;;;;;;11.95;10.57;;;8.20;48.90;;;;;;5046278;28;20120;-81
2022/03/24 03:09:24;;;;;;;13.07;11.35;;;8.10;49.00;;;;;;5041519;28;20380;-79
2022/03/24 03:11:52;;;;;;;12.35;11.05;;;8.10;48.70;;;;;;5039832;28;20065;-81
2022/03/24 03:14:19;;;;;;;13.68;11.18;;;8.10;48.70;;;;;;5051291;28;20070;-80
2022/03/24 03:16:45;;;;;;;11.82;10.57;;;8.10;49.40;;;;;;5059906;28;20017;-80
2022/03/24 03:19:12;;;;;;;12.77;10.63;;;8.10;48.80;;;;;;5067528;28;20037;-79
2022/03/24 03:21:39;;;;;;;11.30;10.15;;;8.00;48.60;;;;;;5062363;28;20037;-79
2022/03/24 03:24:06;;;;;;;11.98;10.70;;;8.00;48.70;;;;;;5073308;28;20048;-80
2022/03/24 03:26:33;;;;;;;12.43;11.15;;;8.00;48.70;;;;;;5068911;28;20022;-80
2022/03/24 03:28:59;;;;;;;11.57;10.48;;;7.90;48.60;;;;;;5062660;28;20041;-79
2022/03/24 03:31:25;;;;;;;11.88;10.68;;;7.90;48.60;;;;;;5066363;28;20028;-79
2022/03/24 03:33:52;;;;;;;12.38;10.93;;;7.90;48.60;;;;;;5067310;28;20025;-80
2022/03/24 03:36:19;;;;;;;11.27;10.18;;;7.90;48.70;;;;;;5055777;28;20051;-80
2022/03/24 03:38:46;;;;;;;13.88;11.10;;;7.90;48.70;;;;;;5061431;28;20029;-80
2022/03/24 03:41:17;;;;;;;12.07;10.77;;;7.80;48.60;;;;;;5066164;28;20075;-81
2022/03/24 03:43:44;;;;;;;17.40;11.18;;;7.80;48.60;;;;;;5067715;28;20036;-81
2022/03/24 03:46:11;;;;;;;17.63;11.50;;;7.80;48.60;;;;;;5050747;28;20044;-80
2022/03/24 03:48:38;;;;;;;15.00;11.85;;;7.70;48.50;;;;;;5051142;28;20032;-80
2022/03/24 03:51:05;;;;;;;13.60;11.18;;;7.70;48.60;;;;;;5038392;28;20031;-80
2022/03/24 03:53:32;;;;;;;12.88;11.20;;;7.70;48.60;;;;;;5048708;28;20021;-80
2022/03/24 03:55:58;;;;;;;12.15;10.95;;;7.60;48.50;;;;;;5058606;28;20037;-80
2022/03/24 03:58:24;;;;;;;13.55;10.85;;;7.60;48.50;;;;;;5028895;28;20444;-78
2022/03/24 04:00:52;;;;;;;12.48;11.10;;;7.60;48.60;;;;;;5029708;28;20037;-78
2022/03/24 04:03:39;;;;;;;11.93;10.73;;;7.60;48.60;;;;;;5049394;28;20037;-78
2022/03/24 04:06:10;;;;;;;11.80;10.68;;;7.60;48.70;;;;;;5023699;28;20043;-78
2022/03/24 04:08:37;;;;;;;11.52;10.35;;;7.50;48.50;;;;;;5037449;28;20383;-78
2022/03/24 04:11:05;;;;;;;11.82;10.50;;;7.50;48.50;;;;;;5040430;28;20128;-79
2022/03/24 04:13:31;;;;;;;11.63;10.43;;;7.50;48.50;;;;;;5025949;28;20033;-79
2022/03/24 04:15:57;;;;;;;15.32;10.90;;;7.50;48.60;;;;;;5050835;28;20044;-79
2022/03/24 04:18:23;;;;;;;15.13;11.35;;;7.50;48.50;;;;;;5050525;28;20043;-78
2022/03/24 04:20:49;;;;;;;12.60;10.70;;;7.40;48.40;;;;;;5042662;28;20145;-79
2022/03/24 04:23:16;;;;;;;11.73;10.27;;;7.40;48.40;;;;;;5045546;28;20515;-79
2022/03/24 04:25:42;;;;;;;15.43;12.15;;;7.40;48.50;;;;;;5064889;28;20139;-79
2022/03/24 04:28:08;;;;;;;13.05;10.45;;;7.40;48.50;;;;;;5043764;28;20140;-78
2022/03/24 04:30:34;;;;;;;12.73;10.90;;;7.40;48.60;;;;;;5047752;28;20459;-79
2022/03/24 04:33:01;;;;;;;12.15;10.13;;;7.30;48.40;;;;;;5046878;28;20108;-79
2022/03/24 04:35:27;;;;;;;12.27;10.90;;;7.30;48.40;;;;;;5039581;28;20029;-79
2022/03/24 04:37:53;;;;;;;12.18;10.90;;;7.30;48.50;;;;;;5034382;28;20351;-78
2022/03/24 04:40:20;;;;;;;11.73;10.52;;;7.30;48.50;;;;;;5049674;28;20025;-79
2022/03/24 04:42:49;;;;;;;14.77;10.85;;;7.20;49.00;;;;;;5043798;28;20033;-82
2022/03/24 04:45:17;;;;;;;13.82;12.05;;;7.20;48.40;;;;;;5046147;28;20036;-80
2022/03/24 04:47:44;;;;;;;13.25;11.30;;;7.20;48.50;;;;;;5053452;28;20111;-80
2022/03/24 04:50:11;;;;;;;12.43;10.48;;;7.10;48.30;;;;;;5027932;28;20040;-79
2022/03/24 04:52:37;;;;;;;12.20;10.68;;;7.10;48.40;;;;;;5020558;28;20548;-80
2022/03/24 04:55:03;;;;;;;12.77;11.02;;;7.10;48.40;;;;;;5027020;28;20129;-79
2022/03/24 04:57:30;;;;;;;13.95;11.18;;;7.10;48.50;;;;;;5015965;28;20064;-79
2022/03/24 04:59:59;;;;;;;13.88;11.45;;;7.10;48.50;;;;;;5026192;28;20029;-79
2022/03/24 05:02:26;;;;;;;12.35;10.88;;;7.10;48.50;;;;;;5027945;28;20048;-78
2022/03/24 05:04:54;;;;;;;14.52;11.35;;;7.10;48.50;;;;;;5026722;28;20136;-79
2022/03/24 05:07:20;;;;;;;13.07;11.00;;;7.00;48.30;;;;;;5025773;28;20033;-79
2022/03/24 05:09:46;;;;;;;14.15;11.23;;;7.00;48.40;;;;;;5026539;28;20076;-78
2022/03/24 05:12:12;;;;;;;12.45;11.07;;;7.00;48.40;;;;;;5027261;28;20117;-78
2022/03/24 05:14:38;;;;;;;12.95;10.90;;;7.00;48.40;;;;;;5041855;28;20143;-79
2022/03/24 05:17:05;;;;;;;12.57;10.82;;;7.00;48.40;;;;;;5026002;28;20033;-78
2022/03/24 05:19:31;;;;;;;13.02;10.32;;;7.00;48.40;;;;;;5033794;28;20026;-80
2022/03/24 05:21:58;;;;;;;11.95;10.48;;;7.00;48.50;;;;;;5028368;28;20496;-78
2022/03/24 05:24:24;;;;;;;11.57;10.05;;;6.90;48.80;;;;;;5045981;28;20042;-80
2022/03/24 05:26:50;;;;;;;11.77;9.85;;;6.90;48.30;;;;;;5041223;28;20380;-79
2022/03/24 05:29:16;;;;;;;11.73;10.48;;;6.90;48.30;;;;;;5027076;28;20029;-79
2022/03/24 05:31:44;;;;;;;11.48;10.23;;;6.90;48.40;;;;;;5026423;28;20111;-79
2022/03/24 05:34:10;;;;;;;13.20;10.40;;;6.80;48.20;;;;;;5022013;28;20216;-79
2022/03/24 05:36:36;;;;;;;10.98;9.98;;;6.80;48.30;;;;;;5040179;28;20032;-78
2022/03/24 05:39:03;;;;;;;11.57;10.38;;;6.70;48.10;;;;;;5019386;28;20032;-80
2022/03/24 05:41:30;;;;;;;11.65;10.45;;;6.70;48.10;;;;;;5034296;28;20038;-79
2022/03/24 05:44:06;;;;;;;11.93;10.57;;;6.70;48.20;;;;;;5021334;28;20033;-79
2022/03/24 05:46:41;;;;;;;11.27;10.07;;;6.70;48.30;;;;;;5025518;28;20061;-81
2022/03/24 05:49:09;;;;;;;13.80;10.50;;;6.70;48.30;;;;;;5031031;28;20029;-80
2022/03/24 05:51:54;;;;;;;12.32;11.05;;;6.60;48.10;;;;;;5030041;28;20041;-79
2022/03/24 05:54:20;;;;;;;11.73;10.52;;;6.60;48.10;;;;;;5025916;28;20252;-81
2022/03/24 05:56:46;;;;;;;11.85;10.35;;;6.60;48.20;;;;;;5025678;28;20029;-79
2022/03/24 05:59:13;;;;;;;11.88;10.57;;;6.60;48.20;;;;;;5035069;28;20036;-80
2022/03/24 06:01:41;;;;;;;14.10;10.13;;;6.60;48.20;;;;;;5044612;28;20240;-80
2022/03/24 06:04:08;;;;;;;12.38;10.57;;;6.60;48.20;;;;;;5026538;28;20036;-81
2022/03/24 06:06:34;;;;;;;11.50;9.95;;;6.60;48.20;;;;;;5033336;28;20033;-81
2022/03/24 06:09:04;;;;;;;11.45;10.30;;;6.50;48.10;;;;;;5027977;28;20088;-81
2022/03/24 06:11:30;;;;;;;12.43;10.43;;;6.50;48.10;;;;;;5028384;28;20112;-82
2022/03/24 06:13:56;;;;;;;12.10;10.57;;;6.50;48.10;;;;;;5031084;28;20340;-83
2022/03/24 06:16:23;;;;;;;11.20;10.18;;;6.50;48.10;;;;;;5028726;28;20041;-83
2022/03/24 06:18:48;;;;;;;11.20;10.05;;;6.60;48.30;;;;;;5025467;28;20029;-83
2022/03/24 06:21:15;;;;;;;10.75;9.50;;;6.50;48.10;;;;;;5045485;28;20044;-82
2022/03/24 06:23:41;;;;;;;12.45;10.70;;;6.50;48.10;;;;;;5031443;28;20108;-82
2022/03/24 06:26:08;;;;;;;12.68;11.20;;;6.50;48.10;;;;;;5031167;28;20536;-85
2022/03/24 06:28:35;;;;;;;12.20;10.63;;;6.50;48.10;;;;;;5025095;28;20049;-80
2022/03/24 06:31:01;;;;;;;12.43;10.98;;;6.50;48.10;;;;;;5029308;28;20080;-85
2022/03/24 06:33:26;;;;;;;15.20;12.05;;;6.50;48.10;;;;;;5030538;28;20061;-77
2022/03/24 06:35:52;;;;;;;13.98;11.25;;;6.50;48.10;;;;;;5031674;28;20037;-79
2022/03/24 06:38:19;;;;;;;13.77;11.48;;;6.50;48.10;;;;;;5028307;28;20559;-77
2022/03/24 06:40:45;;;;;;;12.50;11.20;;;6.50;48.10;;;;;;5028144;28;20426;-78
2022/03/24 06:43:11;;;;;;;16.80;12.70;;;6.60;48.30;;;;;;5028058;28;20033;-79
2022/03/24 06:45:38;;;;;;;16.00;13.77;;;6.60;48.30;;;;;;5034463;28;20361;-78
2022/03/24 06:48:09;;;;;;;16.20;14.27;;;6.60;48.40;;;;;;5026140;28;20038;-86
2022/03/24 06:50:36;;;;;;;15.68;13.30;;;6.60;48.30;;;;;;5036453;28;20063;-84
2022/03/24 06:53:03;;;;;;;19.35;15.38;;;6.60;48.30;;;;;;5050735;28;20531;-82
2022/03/24 06:55:30;;;;;;;18.13;15.02;;;6.60;48.30;;;;;;5052640;28;20076;-84
2022/03/24 06:57:56;;;;;;;20.00;16.30;;;6.70;48.50;;;;;;5046128;28;20025;-86
2022/03/24 07:00:21;;;;;;;18.77;15.15;;;6.70;48.50;;;;;;5027315;28;20040;-86
2022/03/24 07:02:47;;;;;;;20.67;16.10;;;6.70;48.50;;;;;;5031990;28;20037;-84
2022/03/24 07:05:14;;;;;;;19.58;16.42;;;6.70;48.50;;;;;;5057510;28;20068;-84
2022/03/24 07:07:41;;;;;;;19.15;15.35;;;6.80;48.80;;;;;;5042867;28;20026;-85
2022/03/24 07:10:07;;;;;;;18.58;15.52;;;6.80;48.80;;;;;;5042743;28;20036;-87
2022/03/24 07:12:35;;;;;;;18.50;15.98;;;6.90;48.90;;;;;;5053092;28;20025;-83
2022/03/24 07:15:04;;;;;;;26.67;15.65;;;6.90;48.90;;;;;;5029017;28;20040;-82
2022/03/24 07:17:30;;;;;;;18.83;15.55;;;6.90;48.90;;;;;;5021252;28;20034;-80
2022/03/24 07:19:56;;;;;;;21.17;16.30;;;7.00;49.00;;;;;;5039567;28;20041;-88
2022/03/24 07:22:22;;;;;;;16.40;14.60;;;7.10;49.10;;;;;;5026027;28;20579;-79
2022/03/24 07:24:48;;;;;;;17.85;15.98;;;7.20;49.20;;;;;;5028506;28;20036;-83
2022/03/24 07:27:14;;;;;;;18.50;16.50;;;7.20;49.20;;;;;;5033565;28;20036;-85
2022/03/24 07:29:41;;;;;;;19.73;16.38;;;7.30;49.30;;;;;;5033269;28;20040;-84
2022/03/24 07:32:08;;;;;;;20.20;16.60;;;7.30;49.20;;;;;;5038874;28;20029;-89
2022/03/24 07:34:35;;;;;;;20.98;17.70;;;7.40;49.40;;;;;;5035332;28;20476;-85
2022/03/24 07:37:03;;;;;;;19.10;15.43;;;7.50;49.50;;;;;;5027335;28;20021;-84
2022/03/24 07:39:29;;;;;;;17.90;16.05;;;7.50;49.50;;;;;;5028649;28;20108;-86
2022/03/24 07:41:54;;;;;;;20.15;16.60;;;7.60;49.70;;;;;;5039619;28;20606;-84
2022/03/24 07:44:20;;;;;;;17.42;15.50;;;7.70;49.90;;;;;;5037908;28;20512;-83
2022/03/24 07:46:46;;;;;;;18.35;15.15;;;7.80;50.00;;;;;;5032399;28;20069;-83
2022/03/24 07:49:12;;;;;;;17.60;14.77;;;8.00;50.20;;;;;;5039091;28;20051;-83
2022/03/24 07:51:38;;;;;;;18.45;15.65;;;8.10;50.20;;;;;;5019166;28;20045;-83
2022/03/24 07:54:07;;;;;;;17.45;14.63;;;8.20;50.30;;;;;;5020373;28;20021;-83
2022/03/24 07:56:34;;;;;;;18.95;15.02;;;8.30;50.40;;;;;;5018936;28;20529;-83
2022/03/24 07:59:00;;;;;;;16.88;15.15;;;8.40;50.40;;;;;;5019079;28;20114;-83
2022/03/24 08:01:27;;;;;;;19.15;15.95;;;8.50;50.50;;;;;;5034832;28;20444;-83
2022/03/24 08:03:55;;;;;;;16.73;14.98;;;8.50;50.30;;;;;;5023288;28;20049;-82
2022/03/24 08:06:21;;;;;;;16.63;14.45;;;8.60;50.40;;;;;;5026718;28;20145;-83
2022/03/24 08:08:47;;;;;;;16.92;14.35;;;8.70;50.50;;;;;;5021664;28;20743;-82
2022/03/24 08:11:13;;;;;;;17.48;15.68;;;8.80;50.60;;;;;;5029355;28;20048;-83
2022/03/24 08:13:39;;;;;;;18.95;15.57;;;8.90;50.70;;;;;;5022073;28;20041;-83
2022/03/24 08:16:06;;;;;;;17.33;15.52;;;9.00;50.80;;;;;;5014679;28;20835;-83
2022/03/24 08:18:32;;;;;;;17.52;15.73;;;9.00;50.80;;;;;;5022291;28;20496;-82
2022/03/24 08:20:58;;;;;;;17.63;15.50;;;9.10;50.80;;;;;;5019646;28;20165;-83
2022/03/24 08:23:24;;;;;;;19.05;14.98;;;9.20;51.00;;;;;;5021690;28;20033;-83
2022/03/24 08:25:51;;;;;;;16.60;14.82;;;9.30;51.00;;;;;;5008796;28;20046;-85
2022/03/24 08:28:17;;;;;;;18.33;16.25;;;9.30;51.00;;;;;;5015387;28;20103;-79
2022/03/24 08:30:47;;;;;;;16.98;14.50;;;9.50;51.30;;;;;;5025037;28;20637;-79
2022/03/24 08:33:13;;;;;;;18.05;15.68;;;9.50;51.20;;;;;;5008310;28;20128;-78
2022/03/24 08:35:41;;;;;;;19.20;16.23;;;9.60;51.30;;;;;;5016857;28;20041;-79
2022/03/24 08:38:07;;;;;;;18.75;15.93;;;9.70;51.40;;;;;;5026140;28;20029;-78
2022/03/24 08:40:33;;;;;;;21.40;16.83;;;9.70;51.20;;;;;;5023829;28;20148;-78
2022/03/24 08:42:59;;;;;;;19.33;17.25;;;9.90;51.50;;;;;;5027484;28;20032;-79
2022/03/24 08:45:25;;;;;;;18.92;16.83;;;9.90;51.40;;;;;;5017771;28;20087;-80
2022/03/24 08:47:53;;;;;;;20.20;17.20;;;10.00;51.50;;;;;;5020423;28;20053;-79
2022/03/24 08:50:20;;;;;;;20.75;17.60;;;10.10;51.50;;;;;;5019228;28;20041;-80
2022/03/24 08:52:46;;;;;;;21.05;18.10;;;10.20;51.60;;;;;;5026837;28;20039;-80
2022/03/24 08:55:15;;;;;;;19.42;17.33;;;10.30;51.70;;;;;;5020525;28;20520;-80
2022/03/24 08:57:43;;;;;;;19.05;17.05;;;10.40;51.70;;;;;;5014862;28;20044;-78
2022/03/24 09:00:15;;;;;;;19.42;17.42;;;10.40;51.70;;;;;;5008189;28;20030;-79
2022/03/24 09:02:46;;;;;;;20.77;16.63;;;10.50;51.70;;;;;;5008200;28;20061;-80
2022/03/24 09:05:16;;;;;;;20.15;18.05;;;10.70;51.90;;;;;;5023187;28;20509;-78
2022/03/24 09:07:42;;;;;;;24.02;18.73;;;10.70;51.80;;;;;;5027644;28;20029;-79
2022/03/24 09:10:10;;;;;;;22.85;20.05;;;10.80;51.90;;;;;;5010793;28;20057;-78
2022/03/24 09:12:38;;;;;;;24.58;19.33;;;10.90;52.00;;;;;;5040693;28;20124;-78
2022/03/24 09:15:07;;;;;;;24.38;19.83;;;10.90;51.90;;;;;;5015542;28;20048;-79
2022/03/24 09:17:35;;;;;;;24.02;19.63;;;11.00;51.90;;;;;;5030710;28;20500;-78
2022/03/24 09:20:10;;;;;;;26.73;19.55;;;11.10;52.00;;;;;;5022204;28;20475;-83
2022/03/24 09:22:37;;;;;;;24.23;20.45;;;11.20;52.10;;;;;;5029102;28;20030;-78
2022/03/24 09:25:04;;;;;;;24.08;21.52;;;11.30;52.20;;;;;;5015587;28;20047;-75
2022/03/24 09:27:30;;;;;;;26.35;20.70;;;11.30;52.00;;;;;;5029908;28;20039;-78
2022/03/24 09:29:56;;;;;;;23.05;19.58;;;11.40;52.10;;;;;;5024544;28;20511;-78
2022/03/24 09:32:22;;;;;;;24.65;20.20;;;11.50;52.10;;;;;;5045855;28;20100;-78
2022/03/24 09:34:48;;;;;;;26.50;20.80;;;11.60;52.20;;;;;;5006786;28;20052;-79
2022/03/24 09:37:17;;;;;;;23.02;19.95;;;11.60;52.60;;;;;;5024824;28;20064;-79
2022/03/24 09:39:44;;;;;;;23.42;20.05;;;11.70;52.10;;;;;;5035915;28;20357;-78
2022/03/24 09:42:11;;;;;;;28.42;21.02;;;11.80;52.20;;;;;;5031824;28;20087;-79
2022/03/24 09:44:37;;;;;;;21.38;19.08;;;11.90;52.20;;;;;;5035232;28;20129;-77
2022/03/24 09:47:03;;;;;;;26.27;20.40;;;11.90;52.00;;;;;;5025063;28;20760;-77
2022/03/24 09:49:30;;;;;;;25.83;21.35;;;12.10;52.20;;;;;;5052257;28;20041;-78
2022/03/24 09:51:56;;;;;;;24.23;21.27;;;12.10;52.10;;;;;;5051587;28;20025;-77
2022/03/24 09:54:22;;;;;;;23.42;20.88;;;12.20;52.60;;;;;;5049593;28;20041;-77
2022/03/24 09:56:48;;;;;;;24.27;19.83;;;12.30;52.10;;;;;;5026634;28;20032;-77
2022/03/24 09:59:15;;;;;;;24.10;21.60;;;12.40;52.10;;;;;;5035979;28;20286;-77
2022/03/24 10:01:42;;;;;;;26.58;20.88;;;12.50;52.10;;;;;;5040159;28;20460;-77
2022/03/24 10:04:15;;;;;;;26.70;21.52;;;12.60;52.10;;;;;;5037512;28;20116;-77
2022/03/24 10:06:59;;;;;;;26.35;22.15;;;12.60;51.90;;;;;;5035945;28;20041;-78
2022/03/24 10:09:41;;;;;;;27.60;22.02;;;12.70;51.90;;;;;;5033184;28;20403;-77
2022/03/24 10:12:08;;;;;;;24.83;21.42;;;12.80;51.90;;;;;;5042110;28;20036;-78
2022/03/24 10:14:34;;;;;;;29.77;22.77;;;12.90;51.90;;;;;;5035638;28;20061;-80
2022/03/24 10:17:09;;;;;;;26.17;22.95;;;13.00;52.00;;;;;;5034081;28;20029;-80
2022/03/24 10:19:36;;;;;;;25.98;20.98;;;13.00;51.80;;;;;;5040939;28;20150;-78
2022/03/24 10:22:12;;;;;;;27.85;21.50;;;13.10;51.80;;;;;;5037366;28;20542;-82
2022/03/24 10:24:40;;;;;;;28.13;21.83;;;13.20;52.40;;;;;;5045972;28;20075;-80
2022/03/24 10:27:07;;;;;;;25.63;22.13;;;13.30;51.80;;;;;;5028933;28;20099;-81
2022/03/24 10:29:34;;;;;;;25.92;22.27;;;13.30;51.70;;;;;;5023794;28;20033;-80
2022/03/24 10:32:03;;;;;;;27.17;21.50;;;13.40;51.70;;;;;;5011530;28;20026;-78
2022/03/24 10:34:40;;;;;;;28.10;22.88;;;13.50;51.70;;;;;;5015376;28;20080;-79
2022/03/24 10:37:17;;;;;;;33.92;23.52;;;13.60;51.70;;;;;;5018736;28;20041;-80
2022/03/24 10:39:59;;;;;;;27.33;23.67;;;13.70;51.70;;;;;;5029653;28;20025;-80
2022/03/24 10:42:29;;;;;;;26.33;22.17;;;13.80;51.60;;;;;;5020367;28;20032;-79
2022/03/24 10:45:15;;;;;;;27.23;23.17;;;13.90;51.70;;;;;;5023865;28;20290;-78
2022/03/24 10:47:48;;;;;;;28.92;23.55;;;13.90;51.40;;;;;;5034352;28;20220;-78
2022/03/24 10:50:32;;;;;;;34.42;23.60;;;14.10;51.70;;;;;;5040934;28;20038;-82
2022/03/24 10:53:19;;;;;;;28.02;22.70;;;14.10;51.40;;;;;;5028680;28;20064;-78
2022/03/24 10:55:47;;;;;;;29.05;22.40;;;14.20;51.40;;;;;;5022914;28;20037;-82
2022/03/24 10:58:32;;;;;;;28.20;24.02;;;14.30;51.50;;;;;;5017292;28;20026;-79
2022/03/24 11:01:00;;;;;;;34.90;25.70;;;14.40;51.40;;;;;;5014816;28;20040;-82
2022/03/24 11:03:27;;;;;;;33.25;26.63;;;14.50;51.50;;;;;;5025887;28;20026;-81
2022/03/24 11:06:04;;;;;;;30.88;25.70;;;14.50;51.30;;;;;;5014788;28;20356;-80
2022/03/24 11:08:30;;;;;;;34.72;27.40;;;14.60;51.10;;;;;;5022156;28;20029;-79
2022/03/24 11:10:56;;;;;;;36.00;27.38;;;14.70;51.20;;;;;;5040830;28;20044;-83
2022/03/24 11:13:40;;;;;;;35.85;26.13;;;14.70;50.90;;;;;;5024303;28;20550;-78
2022/03/24 11:16:08;;;;;;;29.45;24.15;;;14.80;51.00;;;;;;5016444;28;20037;-78
2022/03/24 11:18:34;;;;;;;31.85;24.92;;;14.90;51.20;;;;;;5027011;28;20025;-78
2022/03/24 11:21:09;;;;;;;32.80;25.50;;;15.00;51.30;;;;;;5044557;28;20039;-78
2022/03/24 11:23:39;;;;;;;33.90;25.98;;;15.00;51.20;;;;;;5005850;28;20026;-79
2022/03/24 11:26:10;;;;;;;29.02;24.13;;;15.10;51.20;;;;;;5020751;28;20120;-80
2022/03/24 11:28:37;;;;;;;31.85;24.52;;;15.20;51.30;;;;;;5035908;28;20423;-77
2022/03/24 11:31:12;;;;;;;29.98;24.02;;;15.30;51.30;;;;;;5025912;28;20034;-77
2022/03/24 11:33:40;;;;;;;31.83;25.48;;;15.40;51.90;;;;;;5025448;28;20030;-77
2022/03/24 11:36:08;;;;;;;30.25;24.10;;;15.50;51.30;;;;;;5022961;28;20057;-77
2022/03/24 11:38:34;;;;;;;28.20;24.45;;;15.50;51.20;;;;;;5038167;28;20038;-78
2022/03/24 11:41:04;;;;;;;33.40;25.00;;;15.60;51.20;;;;;;5023841;28;20538;-77
2022/03/24 11:43:31;;;;;;;31.15;24.95;;;15.60;51.00;;;;;;5025090;28;20041;-80
2022/03/24 11:46:04;;;;;;;31.10;25.00;;;15.70;51.10;;;;;;5025450;28;20045;-77
2022/03/24 11:48:33;;;;;;;;;;;15.80;51.10;;;;;;5021267;28;20512;-77
2022/03/24 11:51:23;;;;;;;28.73;24.10;;;15.90;51.20;;;;;;5024004;28;19909;-78
2022/03/24 11:54:04;;;;;;;30.45;25.35;;;15.90;51.10;;;;;;5017512;28;20500;-77
2022/03/24 11:56:30;;;;;;;30.70;24.10;;;16.00;51.00;;;;;;5024186;28;20543;-78
2022/03/24 11:58:56;;;;;;;31.15;25.02;;;16.10;51.10;;;;;;5028872;28;20040;-77
2022/03/24 12:01:23;;;;;;;28.60;24.30;;;16.20;51.20;;;;;;5025865;28;20033;-77
2022/03/24 12:03:56;;;;;;;33.25;26.08;;;16.20;50.90;;;;;;5027930;28;20036;-77
2022/03/24 12:06:45;;;;;;;32.38;26.50;;;16.20;50.70;;;;;;5038694;28;20034;-77
2022/03/24 12:09:13;;;;;;;32.95;24.88;;;16.30;50.70;;;;;;5023243;28;20454;-78
2022/03/24 12:11:41;;;;;;;37.55;25.95;;;16.30;50.70;;;;;;5027310;28;20041;-78
2022/03/24 12:14:14;;;;;;;28.40;22.27;;;16.40;50.70;;;;;;5026318;28;20034;-82
2022/03/24 12:16:49;;;;;;;24.98;20.80;;;16.50;50.80;;;;;;5017770;28;20034;-81
2022/03/24 12:19:36;;;;;;;24.85;19.55;;;16.60;51.00;;;;;;5027117;28;20204;-80
2022/03/24 12:22:32;;;;;;;29.08;22.67;;;16.70;51.30;;;;;;5034058;28;20064;-78
2022/03/24 12:25:01;;;;;;;26.05;21.00;;;16.80;51.40;;;;;;5042849;28;20024;-79
2022/03/24 12:27:28;;;;;;;26.20;21.23;;;16.90;51.50;;;;;;5041853;28;20025;-78
2022/03/24 12:30:18;;;;;;;25.85;20.30;;;16.90;51.40;;;;;;5038360;28;20029;-79
2022/03/24 12:33:02;;;;;;;29.55;22.50;;;17.10;51.60;;;;;;5037606;28;20022;-82
2022/03/24 12:35:58;;;;;;;26.58;22.50;;;17.10;51.40;;;;;;5040922;28;20033;-82
2022/03/24 12:38:33;;;;;;;28.05;22.20;;;17.20;51.40;;;;;;5037288;28;20048;-80